Terminal Aerodrome Forecast
Issued by NWS

Home | Current Version | Previous Version | Text Only | Print | Product List | Glossary On
Versions: 1 2 3 4 5 6 7 8 9 10 11 12 13 14 15 16 17 18 19 20 21 22 23 24 25 26 27 28 29 30 31 32 33 34 35 36
485
FTUS43 KGRB 172239 AAA
TAFATW
TAF AMD
KATW 172239Z 1723/1818 34006KT 1SM BR OVC002
      TEMPO 1723/1801 1/4SM FG
     FM180100 32005KT 3SM BR OVC005
     FM180500 27004KT 5SM BR SCT005 OVC012
      TEMPO 1805/1809 2SM BR SCT002 OVC005
     FM180900 26005KT 3SM BR SCT012 OVC020
     FM181400 23008KT 5SM BR BKN035 OVC070=

USA.gov is the U.S. government's official web portal to all federal, state and local government web resources and services.